Pawcatuck, CT

5:46 PM EST on December 28, 2014 (GMT -0500)
Block Island State | Change Station
CLOSE
Current Station
Airport
Location: Block Island,
Elevation: 108 ft
Nearby Weather Stations

Elev 108 ft 41.17 °N, 71.58 °W | Updated 11 minutes ago

Mostly Cloudy
Mostly Cloudy
46 °F
Feels Like 42 °F
N
10
Wind Variable Wind from West

Today
High -- | Low -- °F
--% Chance of Precip.
Yesterday
High -- | Low -- °F
Precip. -- in
7:12 AM 4:25 PM
First Quarter, 52% visible
Pressure 29.90 in
Visibility 10.0 miles
Clouds Mostly Cloudy 2900 ft
Windchill 42 °F
Dew Point 41 °F
Humidity 81%
Rainfall 0.00 in
Snow Depth Not available.
UV 0 out of 12
Pollen .10 out of 12
Air Quality Not available.
Flu Activity Not available.
METAR KBID 282235Z AUTO 27009KT 10SM BKN029 08/05 A2990 RMK AO1

More Conditions Fewer Conditions

Pressure 29.90 in
Visibility 10.0 miles
Clouds Mostly Cloudy 2900 ft
Windchill 42 °F
Dew Point 41 °F
Humidity 81%
Rainfall 0.00 in
Snow Depth Not available.
UV 0 out of 12
Pollen .10 out of 12
Air Quality Not available.
Flu Activity Not available.
METAR KBID 282235Z AUTO 27009KT 10SM BKN029 08/05 A2990 RMK AO1

More Conditions Fewer Conditions

10-Day Weather Forecast

Almanac

Astronomy

Dec. 28, 2014 Rise Set
Actual Time
Civil Twilight
Nautical Twilight
Astronomical Twilight
Moon
Length of Visible Light
Length of Day
Tomorrow will be .
, % of the Moon is Illuminated

Today's Extremes

State Highs State Lows

Community

WunderPhotos

Upload Photos

1,781,452 photos uploaded!

WunderBlogs® & News

Nearby

Air Quality

  Air Quality AQ Index Pollutant
Not available.

Snow Depth

Station Depth Elevation

Earthquake Activity

City Distance Mag. Time & Date
Minimum magnitude displayed is 2.5.

Coastal Water Temperatures

Place Temperature

Nearby Weather Stations